sensor_id;sensor_type;location;lat;lon;timestamp;pressure;altitude;pressure_sealevel;temperature;humidity
76592;BME280;65481;47.600;19.682;2023-09-19T00:01:35;99782.63;;;22.53;63.91
76592;BME280;65481;47.600;19.682;2023-09-19T00:06:36;99788.19;;;22.48;63.97
76592;BME280;65481;47.600;19.682;2023-09-19T00:11:37;99782.47;;;22.49;63.76
76592;BME280;65481;47.600;19.682;2023-09-19T00:16:41;99776.31;;;22.49;63.79
76592;BME280;65481;47.600;19.682;2023-09-19T00:21:42;99783.09;;;22.46;63.71
76592;BME280;65481;47.600;19.682;2023-09-19T00:26:43;99785.47;;;22.39;64.22
76592;BME280;65481;47.600;19.682;2023-09-19T00:31:44;99788.78;;;22.27;64.92
76592;BME280;65481;47.600;19.682;2023-09-19T00:36:44;99769.22;;;22.18;65.29
76592;BME280;65481;47.600;19.682;2023-09-19T00:41:45;99773.47;;;22.10;65.63
76592;BME280;65481;47.600;19.682;2023-09-19T00:46:46;99771.25;;;22.03;66.48
76592;BME280;65481;47.600;19.682;2023-09-19T00:51:49;99764.47;;;21.97;66.92
76592;BME280;65481;47.600;19.682;2023-09-19T00:56:50;99758.16;;;21.93;67.26
76592;BME280;65481;47.600;19.682;2023-09-19T01:01:51;99758.78;;;21.90;67.08
76592;BME280;65481;47.600;19.682;2023-09-19T01:06:54;99760.84;;;21.84;67.71
76592;BME280;65481;47.600;19.682;2023-09-19T01:11:59;99757.66;;;21.73;68.28
76592;BME280;65481;47.600;19.682;2023-09-19T01:17:32;99753.53;;;21.67;68.88
76592;BME280;65481;47.600;19.682;2023-09-19T01:22:56;99756.69;;;21.60;69.05
76592;BME280;65481;47.600;19.682;2023-09-19T01:28:20;99758.09;;;21.58;69.25
76592;BME280;65481;47.600;19.682;2023-09-19T01:33:22;99754.78;;;21.52;69.31
76592;BME280;65481;47.600;19.682;2023-09-19T01:38:23;99752.38;;;21.51;69.43
76592;BME280;65481;47.600;19.682;2023-09-19T01:43:30;99747.81;;;21.42;69.94
76592;BME280;65481;47.600;19.682;2023-09-19T01:54:05;99743.66;;;21.36;70.15
76592;BME280;65481;47.600;19.682;2023-09-19T01:59:13;99737.06;;;21.42;69.94
76592;BME280;65481;47.600;19.682;2023-09-19T02:04:14;99741.78;;;21.45;69.58
76592;BME280;65481;47.600;19.682;2023-09-19T02:09:15;99735.75;;;21.31;70.30
76592;BME280;65481;47.600;19.682;2023-09-19T02:14:15;99729.47;;;21.27;70.38
76592;BME280;65481;47.600;19.682;2023-09-19T02:19:16;99735.88;;;21.08;71.49
76592;BME280;65481;47.600;19.682;2023-09-19T02:24:17;99734.47;;;20.79;73.63
76592;BME280;65481;47.600;19.682;2023-09-19T02:29:19;99729.31;;;20.60;75.16
76592;BME280;65481;47.600;19.682;2023-09-19T02:34:19;99727.03;;;20.45;76.34
76592;BME280;65481;47.600;19.682;2023-09-19T02:39:20;99726.28;;;20.30;77.47
76592;BME280;65481;47.600;19.682;2023-09-19T02:44:21;99723.44;;;20.26;77.59
76592;BME280;65481;47.600;19.682;2023-09-19T02:49:21;99724.66;;;20.20;77.97
76592;BME280;65481;47.600;19.682;2023-09-19T02:54:21;99710.00;;;20.18;78.11
76592;BME280;65481;47.600;19.682;2023-09-19T02:59:23;99697.09;;;20.20;78.50
76592;BME280;65481;47.600;19.682;2023-09-19T03:04:25;99704.94;;;20.16;78.88
76592;BME280;65481;47.600;19.682;2023-09-19T03:09:27;99713.59;;;20.13;79.24
76592;BME280;65481;47.600;19.682;2023-09-19T03:14:27;99713.16;;;20.20;78.98
76592;BME280;65481;47.600;19.682;2023-09-19T03:19:30;99703.84;;;20.17;79.01
76592;BME280;65481;47.600;19.682;2023-09-19T03:24:33;99696.53;;;20.09;79.84
76592;BME280;65481;47.600;19.682;2023-09-19T03:29:36;99700.75;;;20.01;80.98
76592;BME280;65481;47.600;19.682;2023-09-19T03:34:37;99687.63;;;20.00;81.37
76592;BME280;65481;47.600;19.682;2023-09-19T03:39:43;99689.59;;;20.08;81.57
76592;BME280;65481;47.600;19.682;2023-09-19T03:44:44;99686.97;;;20.17;81.99
76592;BME280;65481;47.600;19.682;2023-09-19T03:49:44;99690.31;;;20.22;81.77
76592;BME280;65481;47.600;19.682;2023-09-19T03:54:45;99701.03;;;20.22;82.47
76592;BME280;65481;47.600;19.682;2023-09-19T03:59:46;99698.28;;;20.13;83.21
76592;BME280;65481;47.600;19.682;2023-09-19T04:04:46;99708.34;;;20.08;83.77
76592;BME280;65481;47.600;19.682;2023-09-19T04:09:47;99694.84;;;20.13;83.72
76592;BME280;65481;47.600;19.682;2023-09-19T04:14:49;99704.47;;;20.14;84.01
76592;BME280;65481;47.600;19.682;2023-09-19T04:19:50;99705.34;;;20.09;85.22
76592;BME280;65481;47.600;19.682;2023-09-19T04:24:51;99712.59;;;20.09;85.49
76592;BME280;65481;47.600;19.682;2023-09-19T04:29:51;99705.19;;;20.06;85.47
76592;BME280;65481;47.600;19.682;2023-09-19T04:34:53;99713.44;;;20.18;84.67
76592;BME280;65481;47.600;19.682;2023-09-19T04:39:54;99711.38;;;20.38;83.73
76592;BME280;65481;47.600;19.682;2023-09-19T04:44:55;99717.59;;;20.47;83.28
76592;BME280;65481;47.600;19.682;2023-09-19T04:49:55;99719.56;;;20.33;83.87
76592;BME280;65481;47.600;19.682;2023-09-19T04:54:58;99719.41;;;20.38;83.94
76592;BME280;65481;47.600;19.682;2023-09-19T04:59:59;99714.69;;;20.35;85.84
76592;BME280;65481;47.600;19.682;2023-09-19T05:04:59;99717.47;;;20.52;86.97
76592;BME280;65481;47.600;19.682;2023-09-19T05:10:01;99732.66;;;20.66;87.28
76592;BME280;65481;47.600;19.682;2023-09-19T05:15:06;99730.53;;;20.77;87.01
76592;BME280;65481;47.600;19.682;2023-09-19T05:20:10;99739.88;;;20.88;86.53
76592;BME280;65481;47.600;19.682;2023-09-19T05:25:17;99740.72;;;20.97;86.44
76592;BME280;65481;47.600;19.682;2023-09-19T05:30:19;99741.81;;;20.96;86.71
76592;BME280;65481;47.600;19.682;2023-09-19T05:35:20;99747.47;;;20.95;87.42
76592;BME280;65481;47.600;19.682;2023-09-19T05:40:25;99756.50;;;20.99;87.74
76592;BME280;65481;47.600;19.682;2023-09-19T05:45:26;99757.13;;;21.05;87.89
76592;BME280;65481;47.600;19.682;2023-09-19T05:50:27;99749.59;;;21.15;87.66
76592;BME280;65481;47.600;19.682;2023-09-19T05:55:28;99744.94;;;21.39;86.73
76592;BME280;65481;47.600;19.682;2023-09-19T06:00:28;99747.88;;;21.69;85.84
76592;BME280;65481;47.600;19.682;2023-09-19T06:10:34;99757.81;;;22.03;85.20
76592;BME280;65481;47.600;19.682;2023-09-19T06:15:35;99757.34;;;22.10;85.03
76592;BME280;65481;47.600;19.682;2023-09-19T06:20:36;99767.16;;;22.23;84.39
76592;BME280;65481;47.600;19.682;2023-09-19T06:25:37;99779.31;;;22.03;85.45
76592;BME280;65481;47.600;19.682;2023-09-19T06:30:37;99780.09;;;21.77;86.58
76592;BME280;65481;47.600;19.682;2023-09-19T06:35:40;99782.16;;;21.81;86.82
76592;BME280;65481;47.600;19.682;2023-09-19T06:40:41;99778.19;;;21.87;87.01
76592;BME280;65481;47.600;19.682;2023-09-19T06:45:42;99774.09;;;21.81;87.38
76592;BME280;65481;47.600;19.682;2023-09-19T06:50:43;99777.72;;;21.85;87.28
76592;BME280;65481;47.600;19.682;2023-09-19T06:55:44;99802.69;;;21.76;87.87
76592;BME280;65481;47.600;19.682;2023-09-19T07:00:45;99809.00;;;21.81;88.04
76592;BME280;65481;47.600;19.682;2023-09-19T07:05:47;99815.16;;;21.72;87.81
76592;BME280;65481;47.600;19.682;2023-09-19T07:10:48;99824.31;;;21.71;87.88
76592;BME280;65481;47.600;19.682;2023-09-19T07:15:49;99834.41;;;21.66;87.91
76592;BME280;65481;47.600;19.682;2023-09-19T07:20:50;99831.22;;;21.63;88.30
76592;BME280;65481;47.600;19.682;2023-09-19T07:25:50;99839.16;;;21.37;89.75
76592;BME280;65481;47.600;19.682;2023-09-19T07:30:51;99840.59;;;21.35;89.79
76592;BME280;65481;47.600;19.682;2023-09-19T07:35:52;99847.09;;;21.42;89.29
76592;BME280;65481;47.600;19.682;2023-09-19T07:40:53;99855.44;;;21.41;89.61
76592;BME280;65481;47.600;19.682;2023-09-19T07:45:53;99860.47;;;21.33;90.46
76592;BME280;65481;47.600;19.682;2023-09-19T07:50:54;99871.69;;;21.36;90.46
76592;BME280;65481;47.600;19.682;2023-09-19T07:56:02;99879.00;;;21.21;91.27
76592;BME280;65481;47.600;19.682;2023-09-19T08:01:07;99888.44;;;21.10;92.08
76592;BME280;65481;47.600;19.682;2023-09-19T08:06:08;99885.22;;;20.99;91.83
76592;BME280;65481;47.600;19.682;2023-09-19T08:11:09;99894.47;;;20.93;92.18
76592;BME280;65481;47.600;19.682;2023-09-19T08:16:13;99889.97;;;20.79;92.45
76592;BME280;65481;47.600;19.682;2023-09-19T08:21:15;99891.88;;;20.65;93.56
76592;BME280;65481;47.600;19.682;2023-09-19T08:26:16;99884.31;;;20.81;93.27
76592;BME280;65481;47.600;19.682;2023-09-19T08:31:17;99893.91;;;21.05;92.83
76592;BME280;65481;47.600;19.682;2023-09-19T08:36:18;99898.13;;;21.20;92.46
76592;BME280;65481;47.600;19.682;2023-09-19T08:41:18;99901.22;;;21.36;91.64
76592;BME280;65481;47.600;19.682;2023-09-19T08:46:20;99911.38;;;21.56;90.79
76592;BME280;65481;47.600;19.682;2023-09-19T08:51:33;99914.88;;;21.57;91.03
76592;BME280;65481;47.600;19.682;2023-09-19T08:56:34;99915.09;;;21.38;92.97
76592;BME280;65481;47.600;19.682;2023-09-19T09:01:35;99917.88;;;21.24;94.30
76592;BME280;65481;47.600;19.682;2023-09-19T09:06:36;99922.13;;;21.25;94.60
76592;BME280;65481;47.600;19.682;2023-09-19T09:11:38;99927.69;;;21.28;93.81
76592;BME280;65481;47.600;19.682;2023-09-19T09:16:40;99924.44;;;21.40;92.60
76592;BME280;65481;47.600;19.682;2023-09-19T09:21:40;99918.59;;;21.15;94.27
76592;BME280;65481;47.600;19.682;2023-09-19T09:26:41;99934.47;;;21.03;96.08
76592;BME280;65481;47.600;19.682;2023-09-19T09:31:45;99948.84;;;20.84;97.85
76592;BME280;65481;47.600;19.682;2023-09-19T09:36:48;99949.75;;;21.02;98.57
76592;BME280;65481;47.600;19.682;2023-09-19T09:41:48;99958.66;;;21.66;97.03
76592;BME280;65481;47.600;19.682;2023-09-19T09:46:49;99942.91;;;22.22;94.44
76592;BME280;65481;47.600;19.682;2023-09-19T09:51:59;99939.03;;;22.73;93.21
76592;BME280;65481;47.600;19.682;2023-09-19T09:57:01;99933.81;;;22.76;92.35
76592;BME280;65481;47.600;19.682;2023-09-19T10:02:29;99930.31;;;22.67;90.92
76592;BME280;65481;47.600;19.682;2023-09-19T10:07:33;99917.31;;;22.95;87.91
76592;BME280;65481;47.600;19.682;2023-09-19T10:12:38;99905.09;;;23.72;82.65
76592;BME280;65481;47.600;19.682;2023-09-19T10:17:43;99886.81;;;24.92;76.46
76592;BME280;65481;47.600;19.682;2023-09-19T10:22:46;99884.22;;;24.96;74.08
76592;BME280;65481;47.600;19.682;2023-09-19T10:28:00;99886.06;;;25.04;69.88
76592;BME280;65481;47.600;19.682;2023-09-19T10:33:04;99911.63;;;25.32;67.18
76592;BME280;65481;47.600;19.682;2023-09-19T10:38:13;99916.31;;;24.76;69.45
76592;BME280;65481;47.600;19.682;2023-09-19T10:43:19;99923.84;;;23.98;72.85
76592;BME280;65481;47.600;19.682;2023-09-19T10:48:20;99921.94;;;23.99;73.86
76592;BME280;65481;47.600;19.682;2023-09-19T10:53:25;99927.34;;;24.20;73.38
76592;BME280;65481;47.600;19.682;2023-09-19T10:58:28;99923.63;;;23.73;74.83
76592;BME280;65481;47.600;19.682;2023-09-19T11:03:29;99923.91;;;23.81;74.67
76592;BME280;65481;47.600;19.682;2023-09-19T11:08:52;99937.72;;;24.09;73.26
76592;BME280;65481;47.600;19.682;2023-09-19T11:30:33;99959.53;;;24.89;68.07
76592;BME280;65481;47.600;19.682;2023-09-19T11:46:23;99963.94;;;24.93;66.41
76592;BME280;65481;47.600;19.682;2023-09-19T11:51:24;99968.13;;;25.03;65.72
76592;BME280;65481;47.600;19.682;2023-09-19T11:56:28;99983.25;;;25.17;65.07
76592;BME280;65481;47.600;19.682;2023-09-19T12:01:32;99980.56;;;25.50;62.53
76592;BME280;65481;47.600;19.682;2023-09-19T12:06:35;99988.56;;;25.72;61.44
76592;BME280;65481;47.600;19.682;2023-09-19T12:11:44;100011.53;;;25.65;61.71
76592;BME280;65481;47.600;19.682;2023-09-19T12:16:51;100000.72;;;26.03;59.90
76592;BME280;65481;47.600;19.682;2023-09-19T12:21:58;99999.84;;;25.98;58.54
76592;BME280;65481;47.600;19.682;2023-09-19T12:27:01;100000.47;;;26.70;56.72
76592;BME280;65481;47.600;19.682;2023-09-19T12:32:04;100002.47;;;26.85;55.72
76592;BME280;65481;47.600;19.682;2023-09-19T12:42:30;99991.28;;;26.09;55.25
76592;BME280;65481;47.600;19.682;2023-09-19T12:47:35;99988.75;;;26.66;53.32
76592;BME280;65481;47.600;19.682;2023-09-19T12:52:40;99998.63;;;26.86;52.10
76592;BME280;65481;47.600;19.682;2023-09-19T12:57:41;99999.41;;;26.74;53.08
76592;BME280;65481;47.600;19.682;2023-09-19T13:08:26;99987.53;;;26.63;52.83
76592;BME280;65481;47.600;19.682;2023-09-19T13:13:27;99996.72;;;26.74;52.23
76592;BME280;65481;47.600;19.682;2023-09-19T13:18:28;99996.91;;;26.53;52.87
76592;BME280;65481;47.600;19.682;2023-09-19T13:23:29;99996.41;;;26.64;52.42
76592;BME280;65481;47.600;19.682;2023-09-19T13:28:32;99997.06;;;26.73;51.99
76592;BME280;65481;47.600;19.682;2023-09-19T13:33:34;99985.69;;;26.67;52.06
76592;BME280;65481;47.600;19.682;2023-09-19T13:38:35;99996.53;;;26.96;51.62
76592;BME280;65481;47.600;19.682;2023-09-19T13:43:39;100011.88;;;26.63;51.53
76592;BME280;65481;47.600;19.682;2023-09-19T13:48:39;100004.28;;;26.81;51.23
76592;BME280;65481;47.600;19.682;2023-09-19T13:53:40;100024.94;;;26.61;52.02
76592;BME280;65481;47.600;19.682;2023-09-19T13:58:40;100027.25;;;26.75;51.32
76592;BME280;65481;47.600;19.682;2023-09-19T14:03:42;100022.59;;;26.47;51.88
76592;BME280;65481;47.600;19.682;2023-09-19T14:08:47;100032.66;;;26.75;51.01
76592;BME280;65481;47.600;19.682;2023-09-19T14:13:48;100031.63;;;26.26;52.02
76592;BME280;65481;47.600;19.682;2023-09-19T14:18:49;100042.56;;;26.18;53.12
76592;BME280;65481;47.600;19.682;2023-09-19T14:23:49;100039.28;;;26.24;53.28
76592;BME280;65481;47.600;19.682;2023-09-19T14:28:50;100027.81;;;26.15;54.20
76592;BME280;65481;47.600;19.682;2023-09-19T14:33:57;100018.22;;;26.05;54.71
76592;BME280;65481;47.600;19.682;2023-09-19T14:38:59;100039.03;;;25.92;55.62
76592;BME280;65481;47.600;19.682;2023-09-19T14:44:02;100024.03;;;25.70;56.60
76592;BME280;65481;47.600;19.682;2023-09-19T14:49:03;100026.75;;;25.70;56.78
76592;BME280;65481;47.600;19.682;2023-09-19T14:54:05;100033.16;;;25.65;56.92
76592;BME280;65481;47.600;19.682;2023-09-19T14:59:07;100032.09;;;25.58;57.37
76592;BME280;65481;47.600;19.682;2023-09-19T15:04:11;100028.63;;;25.57;57.39
76592;BME280;65481;47.600;19.682;2023-09-19T15:09:12;100034.00;;;25.45;57.16
76592;BME280;65481;47.600;19.682;2023-09-19T15:14:13;100038.66;;;25.35;58.03
76592;BME280;65481;47.600;19.682;2023-09-19T15:19:14;100036.91;;;25.18;57.89
76592;BME280;65481;47.600;19.682;2023-09-19T15:24:15;100058.91;;;24.87;59.15
76592;BME280;65481;47.600;19.682;2023-09-19T15:29:17;100051.69;;;24.70;60.04
76592;BME280;65481;47.600;19.682;2023-09-19T15:34:18;100062.88;;;24.59;61.00
76592;BME280;65481;47.600;19.682;2023-09-19T15:39:18;100069.09;;;24.51;61.21
76592;BME280;65481;47.600;19.682;2023-09-19T15:44:23;100073.16;;;24.36;61.84
76592;BME280;65481;47.600;19.682;2023-09-19T15:49:24;100083.66;;;24.29;62.29
76592;BME280;65481;47.600;19.682;2023-09-19T15:54:25;100090.69;;;24.12;63.25
76592;BME280;65481;47.600;19.682;2023-09-19T15:59:28;100096.25;;;24.07;63.57
76592;BME280;65481;47.600;19.682;2023-09-19T16:04:30;100092.31;;;23.96;63.88
76592;BME280;65481;47.600;19.682;2023-09-19T16:09:31;100099.78;;;23.81;64.69
76592;BME280;65481;47.600;19.682;2023-09-19T16:14:32;100104.06;;;23.65;65.57
76592;BME280;65481;47.600;19.682;2023-09-19T16:19:33;100107.75;;;23.51;66.27
76592;BME280;65481;47.600;19.682;2023-09-19T16:24:34;100101.59;;;23.42;66.96
76592;BME280;65481;47.600;19.682;2023-09-19T16:29:34;100110.28;;;23.30;67.33
76592;BME280;65481;47.600;19.682;2023-09-19T16:34:35;100102.47;;;23.20;68.18
76592;BME280;65481;47.600;19.682;2023-09-19T16:39:36;100105.00;;;23.07;69.04
76592;BME280;65481;47.600;19.682;2023-09-19T16:44:36;100099.47;;;22.86;70.24
76592;BME280;65481;47.600;19.682;2023-09-19T16:49:38;100095.31;;;22.71;71.09
76592;BME280;65481;47.600;19.682;2023-09-19T16:54:38;100111.88;;;22.56;72.07
76592;BME280;65481;47.600;19.682;2023-09-19T16:59:39;100113.38;;;22.39;73.09
76592;BME280;65481;47.600;19.682;2023-09-19T17:04:42;100103.31;;;22.22;73.59
76592;BME280;65481;47.600;19.682;2023-09-19T17:09:43;100124.94;;;22.08;74.15
76592;BME280;65481;47.600;19.682;2023-09-19T17:14:44;100118.09;;;22.02;74.64
76592;BME280;65481;47.600;19.682;2023-09-19T17:19:45;100126.88;;;21.93;75.22
76592;BME280;65481;47.600;19.682;2023-09-19T17:24:46;100132.84;;;21.82;76.06
76592;BME280;65481;47.600;19.682;2023-09-19T17:29:47;100147.59;;;21.70;76.66
76592;BME280;65481;47.600;19.682;2023-09-19T17:34:50;100146.91;;;21.65;77.16
76592;BME280;65481;47.600;19.682;2023-09-19T17:39:52;100150.00;;;21.58;77.47
76592;BME280;65481;47.600;19.682;2023-09-19T17:44:53;100156.66;;;21.60;77.35
76592;BME280;65481;47.600;19.682;2023-09-19T17:49:54;100156.81;;;21.41;78.10
76592;BME280;65481;47.600;19.682;2023-09-19T17:54:55;100164.88;;;21.27;78.61
76592;BME280;65481;47.600;19.682;2023-09-19T17:59:59;100167.56;;;21.13;79.01
76592;BME280;65481;47.600;19.682;2023-09-19T18:05:01;100173.06;;;20.94;79.76
76592;BME280;65481;47.600;19.682;2023-09-19T18:10:02;100169.00;;;20.83;80.25
76592;BME280;65481;47.600;19.682;2023-09-19T18:15:08;100178.00;;;20.73;80.70
76592;BME280;65481;47.600;19.682;2023-09-19T18:20:11;100188.50;;;20.55;81.26
76592;BME280;65481;47.600;19.682;2023-09-19T18:25:12;100188.69;;;20.45;81.79
76592;BME280;65481;47.600;19.682;2023-09-19T18:30:14;100198.28;;;20.32;82.22
76592;BME280;65481;47.600;19.682;2023-09-19T18:35:17;100196.16;;;20.15;83.14
76592;BME280;65481;47.600;19.682;2023-09-19T18:40:17;100206.50;;;19.89;84.16
76592;BME280;65481;47.600;19.682;2023-09-19T18:45:22;100209.78;;;19.80;85.22
76592;BME280;65481;47.600;19.682;2023-09-19T18:50:23;100210.94;;;19.74;85.47
76592;BME280;65481;47.600;19.682;2023-09-19T18:55:24;100220.19;;;19.82;85.18
76592;BME280;65481;47.600;19.682;2023-09-19T19:00:25;100215.00;;;19.72;85.57
76592;BME280;65481;47.600;19.682;2023-09-19T19:05:31;100222.72;;;19.54;86.05
76592;BME280;65481;47.600;19.682;2023-09-19T19:10:40;100227.63;;;19.47;86.86
76592;BME280;65481;47.600;19.682;2023-09-19T19:15:43;100230.28;;;19.47;87.04
76592;BME280;65481;47.600;19.682;2023-09-19T19:20:44;100233.28;;;19.45;87.22
76592;BME280;65481;47.600;19.682;2023-09-19T19:25:47;100234.13;;;19.41;87.46
76592;BME280;65481;47.600;19.682;2023-09-19T19:30:48;100234.13;;;19.41;87.29
76592;BME280;65481;47.600;19.682;2023-09-19T19:35:51;100235.78;;;19.36;87.62
76592;BME280;65481;47.600;19.682;2023-09-19T19:40:59;100234.09;;;19.21;88.00
76592;BME280;65481;47.600;19.682;2023-09-19T19:46:02;100236.16;;;19.05;88.47
76592;BME280;65481;47.600;19.682;2023-09-19T19:51:08;100241.56;;;19.00;89.16
76592;BME280;65481;47.600;19.682;2023-09-19T19:56:10;100251.94;;;19.02;89.97
76592;BME280;65481;47.600;19.682;2023-09-19T20:01:12;100260.63;;;18.88;91.65
76592;BME280;65481;47.600;19.682;2023-09-19T20:06:13;100263.28;;;18.88;92.37
76592;BME280;65481;47.600;19.682;2023-09-19T20:11:18;100263.16;;;18.74;92.95
76592;BME280;65481;47.600;19.682;2023-09-19T20:16:19;100264.28;;;18.68;93.29
76592;BME280;65481;47.600;19.682;2023-09-19T20:21:23;100261.47;;;18.54;94.04
76592;BME280;65481;47.600;19.682;2023-09-19T20:26:25;100267.69;;;18.44;94.66
76592;BME280;65481;47.600;19.682;2023-09-19T20:31:26;100267.81;;;18.29;95.52
76592;BME280;65481;47.600;19.682;2023-09-19T20:36:27;100265.88;;;18.35;95.26
76592;BME280;65481;47.600;19.682;2023-09-19T20:41:30;100270.69;;;18.38;95.82
76592;BME280;65481;47.600;19.682;2023-09-19T20:46:30;100267.28;;;18.27;96.66
76592;BME280;65481;47.600;19.682;2023-09-19T20:51:31;100268.38;;;18.21;97.37
76592;BME280;65481;47.600;19.682;2023-09-19T20:56:35;100281.22;;;18.19;97.17
76592;BME280;65481;47.600;19.682;2023-09-19T21:01:36;100291.94;;;18.13;97.72
76592;BME280;65481;47.600;19.682;2023-09-19T21:06:36;100291.75;;;17.99;97.90
76592;BME280;65481;47.600;19.682;2023-09-19T21:11:37;100296.25;;;17.49;96.89
76592;BME280;65481;47.600;19.682;2023-09-19T21:16:37;100287.22;;;17.34;96.55
76592;BME280;65481;47.600;19.682;2023-09-19T21:21:38;100298.91;;;17.38;96.50
76592;BME280;65481;47.600;19.682;2023-09-19T21:26:38;100286.88;;;17.46;96.56
76592;BME280;65481;47.600;19.682;2023-09-19T21:31:39;100290.59;;;17.55;96.40
76592;BME280;65481;47.600;19.682;2023-09-19T21:36:41;100294.56;;;17.63;96.23
76592;BME280;65481;47.600;19.682;2023-09-19T21:41:42;100298.63;;;17.55;96.31
76592;BME280;65481;47.600;19.682;2023-09-19T21:46:42;100305.31;;;17.43;96.64
76592;BME280;65481;47.600;19.682;2023-09-19T21:51:43;100298.97;;;17.23;96.31
76592;BME280;65481;47.600;19.682;2023-09-19T21:56:43;100303.03;;;17.05;96.96
76592;BME280;65481;47.600;19.682;2023-09-19T22:01:43;100299.28;;;17.01;97.17
76592;BME280;65481;47.600;19.682;2023-09-19T22:06:44;100306.47;;;16.90;97.92
76592;BME280;65481;47.600;19.682;2023-09-19T22:11:44;100302.19;;;16.89;98.56
76592;BME280;65481;47.600;19.682;2023-09-19T22:16:45;100307.53;;;16.78;99.39
76592;BME280;65481;47.600;19.682;2023-09-19T22:21:48;100324.25;;;16.12;100.00
76592;BME280;65481;47.600;19.682;2023-09-19T22:26:50;100328.22;;;16.04;100.00
76592;BME280;65481;47.600;19.682;2023-09-19T22:31:51;100325.06;;;16.23;100.00
76592;BME280;65481;47.600;19.682;2023-09-19T22:36:51;100309.38;;;16.42;100.00
76592;BME280;65481;47.600;19.682;2023-09-19T22:41:55;100307.78;;;16.56;100.00
76592;BME280;65481;47.600;19.682;2023-09-19T22:47:04;100314.47;;;16.74;100.00
76592;BME280;65481;47.600;19.682;2023-09-19T22:52:05;100318.19;;;16.84;100.00
76592;BME280;65481;47.600;19.682;2023-09-19T22:57:08;100314.75;;;16.88;100.00
76592;BME280;65481;47.600;19.682;2023-09-19T23:02:11;100319.78;;;16.85;100.00
76592;BME280;65481;47.600;19.682;2023-09-19T23:07:14;100318.44;;;16.77;100.00
76592;BME280;65481;47.600;19.682;2023-09-19T23:12:14;100320.06;;;16.68;100.00
76592;BME280;65481;47.600;19.682;2023-09-19T23:17:19;100319.50;;;16.55;100.00
76592;BME280;65481;47.600;19.682;2023-09-19T23:22:23;100330.94;;;16.30;100.00
76592;BME280;65481;47.600;19.682;2023-09-19T23:27:25;100340.22;;;16.12;100.00
76592;BME280;65481;47.600;19.682;2023-09-19T23:32:27;100344.72;;;16.11;100.00
76592;BME280;65481;47.600;19.682;2023-09-19T23:37:27;100340.22;;;16.17;100.00
76592;BME280;65481;47.600;19.682;2023-09-19T23:42:29;100349.00;;;16.12;100.00
76592;BME280;65481;47.600;19.682;2023-09-19T23:47:31;100352.97;;;16.10;100.00
76592;BME280;65481;47.600;19.682;2023-09-19T23:52:31;100357.19;;;16.00;100.00
76592;BME280;65481;47.600;19.682;2023-09-19T23:57:32;100358.59;;;15.60;100.00
